createdAt,value
2017-12-02T00:00:31.091Z,99882.44
2017-12-02T00:02:58.581Z,99887.84
2017-12-02T00:05:26.064Z,99884.09
2017-12-02T00:07:53.527Z,99879.03
2017-12-02T00:10:22.750Z,99869.64
2017-12-02T00:26:02.768Z,99866.91
2017-12-02T00:28:30.309Z,99871.16
2017-12-02T00:30:57.828Z,99865.98
2017-12-02T00:33:25.298Z,99869.58
2017-12-02T00:35:52.790Z,99867.03
2017-12-02T00:38:20.735Z,99876.61
2017-12-02T00:40:48.279Z,99874.02
2017-12-02T00:43:15.803Z,99877.15
2017-12-02T00:45:43.261Z,99878.26
2017-12-02T00:48:10.746Z,99875.56
2017-12-02T00:50:38.243Z,99885.33
2017-12-02T00:53:05.727Z,99892.91
2017-12-02T00:55:33.187Z,99886.84
2017-12-02T00:58:00.693Z,99891.36
2017-12-02T01:00:28.163Z,99895.67
2017-12-02T01:02:55.651Z,99896.98
2017-12-02T01:05:23.129Z,99906.59
2017-12-02T01:07:50.612Z,99908.19
2017-12-02T01:10:18.075Z,99924.04
2017-12-02T01:12:45.560Z,99920.59
2017-12-02T01:15:13.039Z,99925.34
2017-12-02T01:17:40.503Z,99920.00
2017-12-02T01:20:08.028Z,99926.61
2017-12-02T01:22:35.494Z,99928.78
2017-12-02T01:25:03.186Z,99938.28
2017-12-02T01:27:30.652Z,99936.64
2017-12-02T01:29:58.095Z,99931.63
2017-12-02T01:32:25.577Z,99943.08
2017-12-02T01:34:53.045Z,99942.77
2017-12-02T01:37:20.619Z,99944.58
2017-12-02T01:39:48.086Z,99951.92
2017-12-02T01:42:15.549Z,99950.11
2017-12-02T01:44:43.010Z,99951.29
2017-12-02T01:47:10.492Z,99948.75
2017-12-02T01:49:37.943Z,99953.66
2017-12-02T01:52:05.403Z,99957.42
2017-12-02T01:54:32.891Z,99958.98
2017-12-02T01:57:00.361Z,99956.36
2017-12-02T01:59:27.856Z,99965.34
2017-12-02T02:01:55.334Z,99963.30
2017-12-02T02:04:22.803Z,99968.98
2017-12-02T02:06:50.250Z,99970.83
2017-12-02T02:09:17.722Z,99975.42
2017-12-02T02:11:45.609Z,99973.50
2017-12-02T02:14:13.093Z,99975.07
2017-12-02T02:16:40.598Z,99975.58
2017-12-02T02:19:08.115Z,99979.38
2017-12-02T02:21:35.632Z,99984.45
2017-12-02T02:24:03.128Z,99983.42
2017-12-02T02:26:30.587Z,99980.48
2017-12-02T02:28:59.071Z,99982.44
2017-12-02T02:31:26.576Z,99986.23
2017-12-02T02:33:54.464Z,99991.25
2017-12-02T02:36:21.939Z,99989.62
2017-12-02T02:38:49.408Z,99990.61
2017-12-02T02:41:16.905Z,99996.80
2017-12-02T02:43:44.380Z,99999.73
2017-12-02T02:46:11.851Z,100002.47
2017-12-02T02:48:39.338Z,100003.15
2017-12-02T02:51:06.863Z,100010.92
2017-12-02T02:53:34.362Z,100009.77
2017-12-02T02:56:01.982Z,100007.81
2017-12-02T02:58:29.458Z,100013.14
2017-12-02T03:00:56.918Z,100014.66
2017-12-02T03:03:24.439Z,100021.14
2017-12-02T03:05:51.907Z,100017.64
2017-12-02T03:08:19.360Z,100019.80
2017-12-02T03:10:46.928Z,100019.11
2017-12-02T03:13:14.391Z,100025.16
2017-12-02T03:15:41.875Z,100021.10
2017-12-02T03:18:09.370Z,100023.00
2017-12-02T03:20:36.834Z,100025.81
2017-12-02T03:23:04.308Z,100025.73
2017-12-02T03:25:31.793Z,100027.71
2017-12-02T03:27:59.274Z,100027.02
2017-12-02T03:30:26.749Z,100032.98
2017-12-02T03:32:54.263Z,100032.03
2017-12-02T03:35:21.730Z,100031.20
2017-12-02T03:37:49.212Z,100033.37
2017-12-02T03:40:16.695Z,100037.56
2017-12-02T03:42:44.160Z,100041.78
2017-12-02T03:45:11.639Z,100049.12
2017-12-02T03:47:39.123Z,100055.09
2017-12-02T03:50:06.611Z,100048.52
2017-12-02T03:52:34.083Z,100056.05
2017-12-02T03:55:01.595Z,100048.68
2017-12-02T03:57:29.068Z,100054.67
2017-12-02T03:59:56.559Z,100061.58
2017-12-02T04:02:24.143Z,100063.22
2017-12-02T04:04:51.616Z,100067.99
2017-12-02T04:07:19.140Z,100061.16
2017-12-02T04:09:46.598Z,100067.08
2017-12-02T04:12:14.126Z,100060.06
2017-12-02T04:14:41.597Z,100062.43
2017-12-02T04:17:09.060Z,100056.95
2017-12-02T04:19:36.556Z,100058.00
2017-12-02T04:22:04.028Z,100068.23
2017-12-02T04:24:31.519Z,100071.98
2017-12-02T04:26:59.047Z,100081.86
2017-12-02T04:29:26.548Z,100077.57
2017-12-02T04:31:54.011Z,100067.80
2017-12-02T04:34:21.599Z,100060.16
2017-12-02T04:36:49.068Z,100062.84
2017-12-02T04:39:16.635Z,100066.06
2017-12-02T04:41:44.144Z,100056.81
2017-12-02T04:44:11.679Z,100060.04
2017-12-02T04:46:39.148Z,100063.27
2017-12-02T04:49:06.614Z,100064.52
2017-12-02T04:51:34.103Z,100069.77
2017-12-02T04:54:01.571Z,100074.63
2017-12-02T04:56:29.047Z,100071.75
2017-12-02T04:58:56.503Z,100076.85
2017-12-02T05:01:24.025Z,100074.05
2017-12-02T05:03:51.507Z,100073.63
2017-12-02T05:06:19.934Z,100084.64
2017-12-02T05:08:47.429Z,100084.84
2017-12-02T05:11:14.995Z,100089.26
2017-12-02T05:13:42.492Z,100091.95
2017-12-02T05:16:09.971Z,100094.34
2017-12-02T05:18:37.477Z,100094.14
2017-12-02T05:21:04.967Z,100103.15
2017-12-02T05:23:32.429Z,100096.20
2017-12-02T05:25:59.921Z,100092.27
2017-12-02T05:28:27.460Z,100098.97
2017-12-02T05:30:54.939Z,100102.83
2017-12-02T05:33:22.435Z,100107.34
2017-12-02T05:35:49.940Z,100115.27
2017-12-02T05:38:17.423Z,100112.58
2017-12-02T05:40:44.928Z,100110.68
2017-12-02T05:43:12.406Z,100118.31
2017-12-02T05:45:39.872Z,100109.48
2017-12-02T05:48:07.389Z,100108.27
2017-12-02T05:50:34.883Z,100110.28
2017-12-02T05:53:02.347Z,100111.43
2017-12-02T05:55:29.843Z,100114.19
2017-12-02T05:57:57.295Z,100113.91
2017-12-02T06:00:24.765Z,100113.31
2017-12-02T06:02:52.276Z,100109.18
2017-12-02T06:05:19.763Z,100109.55
2017-12-02T06:07:47.239Z,100111.20
2017-12-02T06:10:14.727Z,100111.07
2017-12-02T06:12:42.270Z,100115.06
2017-12-02T06:15:09.756Z,100126.25
2017-12-02T06:17:37.242Z,100120.69
2017-12-02T06:20:04.721Z,100127.04
2017-12-02T06:22:32.190Z,100123.09
2017-12-02T06:24:59.662Z,100114.67
2017-12-02T06:27:27.152Z,100122.52
2017-12-02T06:29:54.632Z,100129.11
2017-12-02T06:32:22.113Z,100137.20
2017-12-02T06:34:49.682Z,100126.09
2017-12-02T06:37:17.786Z,100130.12
2017-12-02T06:39:45.822Z,100133.52
2017-12-02T06:42:13.279Z,100139.34
2017-12-02T06:44:40.811Z,100135.59
2017-12-02T06:47:08.299Z,100142.33
2017-12-02T06:49:35.775Z,100140.88
2017-12-02T06:52:03.284Z,100140.36
2017-12-02T06:54:30.769Z,100150.03
2017-12-02T06:56:58.267Z,100145.30
2017-12-02T06:59:25.778Z,100149.13
2017-12-02T07:01:53.286Z,100153.20
2017-12-02T07:04:20.792Z,100166.39
2017-12-02T07:06:48.287Z,100171.06
2017-12-02T07:09:15.776Z,100171.12
2017-12-02T07:11:43.262Z,100174.06
2017-12-02T07:14:10.775Z,100177.68
2017-12-02T07:16:38.256Z,100172.14
2017-12-02T07:19:05.772Z,100185.67
2017-12-02T07:21:33.783Z,100187.89
2017-12-02T07:24:01.286Z,100183.42
2017-12-02T07:26:28.796Z,100174.34
2017-12-02T07:28:56.257Z,100185.23
2017-12-02T07:31:23.754Z,100185.23
2017-12-02T07:33:51.255Z,100189.95
2017-12-02T07:36:18.788Z,100187.00
2017-12-02T07:38:46.304Z,100192.92
2017-12-02T07:41:13.849Z,100200.18
2017-12-02T07:43:41.340Z,100199.97
2017-12-02T07:46:08.815Z,100203.11
2017-12-02T07:48:36.299Z,100205.30
2017-12-02T07:51:03.900Z,100206.30
2017-12-02T07:53:31.353Z,100208.73
2017-12-02T07:55:58.837Z,100218.18
2017-12-02T07:58:26.326Z,100218.04
2017-12-02T08:00:53.926Z,100215.24
2017-12-02T08:03:21.468Z,100220.70
2017-12-02T08:05:48.949Z,100229.05
2017-12-02T08:08:16.456Z,100224.28
2017-12-02T08:10:44.164Z,100221.78
2017-12-02T08:13:11.746Z,100217.54
2017-12-02T08:15:39.211Z,100222.95
2017-12-02T08:18:06.704Z,100218.54
2017-12-02T08:20:34.223Z,100222.17
2017-12-02T08:23:01.828Z,100224.51
2017-12-02T08:25:29.310Z,100232.86
2017-12-02T08:27:56.971Z,100233.46
2017-12-02T08:30:24.451Z,100225.58
2017-12-02T08:32:51.941Z,100222.70
2017-12-02T08:35:19.434Z,100228.42
2017-12-02T08:37:46.928Z,100232.06
2017-12-02T08:40:14.428Z,100235.95
2017-12-02T08:42:41.915Z,100240.09
2017-12-02T08:45:09.404Z,100242.80
2017-12-02T08:47:36.888Z,100248.62
2017-12-02T08:50:04.542Z,100252.41
2017-12-02T08:52:32.054Z,100253.41
2017-12-02T08:54:59.606Z,100256.00
2017-12-02T08:57:27.078Z,100263.78
2017-12-02T08:59:54.622Z,100262.22
2017-12-02T09:02:22.141Z,100260.27
2017-12-02T09:04:49.625Z,100264.79
2017-12-02T09:07:17.127Z,100264.04
2017-12-02T09:09:44.712Z,100268.88
2017-12-02T09:12:12.324Z,100269.70
2017-12-02T09:14:40.017Z,100276.11
2017-12-02T09:17:09.009Z,100286.48
2017-12-02T09:19:36.663Z,100289.94
2017-12-02T09:22:04.406Z,100292.45
2017-12-02T09:24:31.957Z,100284.84
2017-12-02T09:27:00.037Z,100289.74
2017-12-02T09:29:27.508Z,100285.61
2017-12-02T09:31:55.781Z,100290.76
2017-12-02T09:34:23.268Z,100293.08
2017-12-02T09:36:50.771Z,100298.19
2017-12-02T09:39:18.247Z,100307.67
2017-12-02T09:41:45.800Z,100303.46
2017-12-02T09:44:13.352Z,100308.64
2017-12-02T09:46:40.823Z,100309.51
2017-12-02T09:49:08.392Z,100313.47
2017-12-02T09:51:35.897Z,100305.02
2017-12-02T09:54:03.381Z,100303.55
2017-12-02T09:56:30.869Z,100312.95
2017-12-02T09:58:58.351Z,100316.88
2017-12-02T10:01:25.824Z,100316.72
2017-12-02T10:03:53.336Z,100316.30
2017-12-02T10:06:20.803Z,100312.83
2017-12-02T10:08:48.334Z,100323.45
2017-12-02T10:11:15.824Z,100314.41
2017-12-02T10:13:43.308Z,100314.75
2017-12-02T10:16:10.859Z,100311.19
2017-12-02T10:18:38.376Z,100306.57
2017-12-02T10:21:05.863Z,100303.73
2017-12-02T10:23:33.386Z,100305.70
2017-12-02T10:26:00.844Z,100307.64
2017-12-02T10:28:28.344Z,100313.41
2017-12-02T10:30:55.843Z,100299.88
2017-12-02T10:33:23.321Z,100300.09
2017-12-02T10:35:50.808Z,100302.69
2017-12-02T10:38:18.303Z,100308.92
2017-12-02T10:40:45.767Z,100307.20
2017-12-02T10:43:13.270Z,100302.73
2017-12-02T10:45:40.788Z,100307.80
2017-12-02T10:48:08.278Z,100303.02
2017-12-02T10:50:35.778Z,100300.69
2017-12-02T10:53:03.389Z,100303.67
2017-12-02T10:55:30.884Z,100303.98
2017-12-02T10:57:58.389Z,100297.20
2017-12-02T11:00:25.847Z,100295.69
2017-12-02T11:02:53.329Z,100303.03
2017-12-02T11:05:20.866Z,100309.04
2017-12-02T11:07:48.449Z,100287.01
2017-12-02T11:10:16.640Z,100292.48
2017-12-02T11:12:44.906Z,100291.83
2017-12-02T11:15:13.359Z,100301.13
2017-12-02T11:17:40.837Z,100277.97
2017-12-02T11:20:08.399Z,100289.78
2017-12-02T11:22:35.946Z,100276.82
2017-12-02T11:25:03.483Z,100280.63
2017-12-02T11:27:31.085Z,100275.38
2017-12-02T11:29:58.663Z,100280.66
2017-12-02T11:32:26.199Z,100277.81
2017-12-02T11:34:53.765Z,100275.63
2017-12-02T11:37:21.360Z,100261.88
2017-12-02T11:39:48.880Z,100264.66
2017-12-02T11:42:16.357Z,100264.86
2017-12-02T11:44:43.832Z,100275.05
2017-12-02T11:47:11.311Z,100268.14
2017-12-02T11:49:38.813Z,100266.88
2017-12-02T11:52:06.302Z,100274.39
2017-12-02T11:54:33.788Z,100275.71
2017-12-02T11:57:01.321Z,100262.14
2017-12-02T11:59:29.027Z,100266.83
2017-12-02T12:01:56.501Z,100272.26
2017-12-02T12:04:23.967Z,100261.50
2017-12-02T12:06:51.455Z,100272.73
2017-12-02T12:09:18.935Z,100261.07
2017-12-02T12:11:46.412Z,100241.92
2017-12-02T12:14:13.912Z,100236.06
2017-12-02T12:16:41.519Z,100242.06
2017-12-02T12:19:09.050Z,100236.80
2017-12-02T12:21:36.717Z,100231.70
2017-12-02T12:24:04.261Z,100239.70
2017-12-02T12:26:31.773Z,100234.89
2017-12-02T12:29:04.131Z,100232.34
2017-12-02T12:31:32.253Z,100223.08
2017-12-02T12:33:59.818Z,100229.81
2017-12-02T12:36:27.284Z,100230.68
2017-12-02T12:38:54.782Z,100240.44
2017-12-02T12:41:22.289Z,100233.97
2017-12-02T12:43:49.808Z,100230.03
2017-12-02T12:46:17.375Z,100235.42
2017-12-02T12:48:44.860Z,100234.41
2017-12-02T12:51:12.356Z,100236.37
2017-12-02T12:53:39.839Z,100241.91
2017-12-02T12:56:07.327Z,100250.70
2017-12-02T12:58:34.843Z,100262.97
2017-12-02T13:01:02.325Z,100239.37
2017-12-02T13:03:29.799Z,100252.08
2017-12-02T13:05:57.332Z,100247.43
2017-12-02T13:08:24.864Z,100246.46
2017-12-02T13:10:52.351Z,100263.03
2017-12-02T13:13:19.817Z,100247.67
2017-12-02T13:15:47.312Z,100246.36
2017-12-02T13:18:14.809Z,100260.67
2017-12-02T13:20:42.299Z,100249.54
2017-12-02T13:23:09.801Z,100248.61
2017-12-02T13:25:37.317Z,100253.76
2017-12-02T13:28:05.650Z,100265.31
2017-12-02T13:30:33.146Z,100261.56
2017-12-02T13:33:00.604Z,100253.16
2017-12-02T13:35:28.085Z,100257.22
2017-12-02T13:37:55.668Z,100260.06
2017-12-02T13:40:23.143Z,100260.00
2017-12-02T13:42:50.640Z,100275.49
2017-12-02T13:45:18.161Z,100270.44
2017-12-02T13:47:45.652Z,100270.73
2017-12-02T13:50:13.128Z,100268.11
2017-12-02T13:52:40.613Z,100268.92
2017-12-02T13:55:08.136Z,100268.41
2017-12-02T13:57:35.663Z,100272.94
2017-12-02T14:00:03.153Z,100277.28
2017-12-02T14:02:30.629Z,100275.22
2017-12-02T14:04:58.261Z,100278.67
2017-12-02T14:07:25.724Z,100268.28
2017-12-02T14:09:53.197Z,100273.23
2017-12-02T14:12:20.727Z,100274.66
2017-12-02T14:14:48.185Z,100267.42
2017-12-02T14:17:15.686Z,100261.48
2017-12-02T14:19:43.161Z,100265.83
2017-12-02T14:22:10.643Z,100282.55
2017-12-02T14:24:38.111Z,100272.70
2017-12-02T14:27:05.568Z,100266.66
2017-12-02T14:29:33.027Z,100265.80
2017-12-02T14:32:00.532Z,100273.62
2017-12-02T14:34:28.290Z,100269.91
2017-12-02T14:36:55.891Z,100267.02
2017-12-02T14:39:23.363Z,100266.42
2017-12-02T14:41:50.836Z,100266.86
2017-12-02T14:44:18.434Z,100258.45
2017-12-02T14:46:45.920Z,100262.80
2017-12-02T14:49:13.414Z,100276.91
2017-12-02T14:51:40.887Z,100262.46
2017-12-02T14:54:08.411Z,100278.27
2017-12-02T14:56:35.903Z,100277.72
2017-12-02T14:59:03.414Z,100280.53
2017-12-02T15:01:30.877Z,100276.32
2017-12-02T15:03:58.382Z,100285.99
2017-12-02T15:06:25.860Z,100279.30
2017-12-02T15:08:53.339Z,100272.59
2017-12-02T15:11:20.855Z,100281.48
2017-12-02T15:13:48.306Z,100283.80
2017-12-02T15:16:15.832Z,100281.92
2017-12-02T15:18:43.307Z,100287.82
2017-12-02T15:21:25.480Z,100311.04
2017-12-02T15:23:53.004Z,100285.71
2017-12-02T15:26:20.576Z,100290.82
2017-12-02T15:28:49.090Z,100287.22
2017-12-02T15:31:16.670Z,100290.20
2017-12-02T15:33:44.244Z,100291.74
2017-12-02T15:36:11.772Z,100283.83
2017-12-02T15:38:39.281Z,100283.12
2017-12-02T15:41:06.800Z,100293.19
2017-12-02T15:43:34.308Z,100293.91
2017-12-02T15:46:01.889Z,100292.77
2017-12-02T15:48:30.265Z,100299.14
2017-12-02T15:50:57.869Z,100300.59
2017-12-02T15:53:25.564Z,100298.08
2017-12-02T15:55:53.096Z,100300.17
2017-12-02T15:58:22.727Z,100306.07
2017-12-02T16:00:50.736Z,100301.81
2017-12-02T16:03:18.206Z,100298.17
2017-12-02T16:05:45.820Z,100305.20
2017-12-02T16:08:13.361Z,100303.52
2017-12-02T16:13:13.079Z,100303.67
2017-12-02T16:15:40.601Z,100305.20
2017-12-02T16:18:08.102Z,100304.02
2017-12-02T16:20:35.729Z,100302.69
2017-12-02T16:23:03.365Z,100306.23
2017-12-02T16:25:30.892Z,100306.62
2017-12-02T16:27:58.471Z,100305.32
2017-12-02T16:30:26.000Z,100310.42
2017-12-02T16:32:54.000Z,100312.86
2017-12-02T16:35:21.526Z,100314.75
2017-12-02T16:37:49.032Z,100314.27
2017-12-02T16:40:17.802Z,100320.64
2017-12-02T16:42:48.622Z,100322.52
2017-12-02T16:45:16.171Z,100319.44
2017-12-02T16:47:43.684Z,100322.44
2017-12-02T16:50:11.232Z,100323.46
2017-12-02T16:52:38.766Z,100333.72
2017-12-02T16:55:06.218Z,100327.58
2017-12-02T16:57:33.773Z,100330.92
2017-12-02T17:00:01.288Z,100326.50
2017-12-02T17:02:28.793Z,100322.33
2017-12-02T17:04:56.763Z,100327.17
2017-12-02T17:07:24.240Z,100330.78
2017-12-02T17:09:51.747Z,100321.86
2017-12-02T17:12:19.991Z,100320.62
2017-12-02T17:14:47.548Z,100328.02
2017-12-02T17:17:15.190Z,100324.59
2017-12-02T17:19:42.689Z,100318.91
2017-12-02T17:22:10.196Z,100322.25
2017-12-02T17:24:37.676Z,100321.02
2017-12-02T17:27:05.241Z,100330.64
2017-12-02T17:29:32.764Z,100336.83
2017-12-02T17:32:00.240Z,100328.13
2017-12-02T17:34:27.945Z,100339.09
2017-12-02T17:36:57.510Z,100340.64
2017-12-02T17:39:25.360Z,100338.23
2017-12-02T17:41:53.370Z,100346.77
2017-12-02T17:44:20.888Z,100340.64
2017-12-02T17:46:48.372Z,100341.25
2017-12-02T17:49:16.366Z,100334.45
2017-12-02T17:51:44.282Z,100327.33
2017-12-02T17:54:12.756Z,100336.22
2017-12-02T17:56:40.340Z,100338.45
2017-12-02T17:59:07.863Z,100340.28
2017-12-02T18:01:35.387Z,100346.66
2017-12-02T18:04:03.081Z,100348.13
2017-12-02T18:06:30.557Z,100342.25
2017-12-02T18:08:58.080Z,100340.13
2017-12-02T18:11:25.591Z,100351.34
2017-12-02T18:13:53.087Z,100350.48
2017-12-02T18:16:20.599Z,100356.27
2017-12-02T18:18:48.161Z,100344.95
2017-12-02T18:21:15.632Z,100344.14
2017-12-02T18:23:43.165Z,100353.19
2017-12-02T18:26:10.682Z,100351.61
2017-12-02T18:28:38.196Z,100348.86
2017-12-02T18:31:05.736Z,100353.80
2017-12-02T18:33:33.216Z,100357.73
2017-12-02T18:36:00.782Z,100364.08
2017-12-02T18:38:28.277Z,100357.78
2017-12-02T18:40:55.811Z,100360.41
2017-12-02T18:43:23.617Z,100357.27
2017-12-02T18:45:54.760Z,100351.00
2017-12-02T18:48:22.327Z,100351.55
2017-12-02T18:50:51.164Z,100348.67
2017-12-02T18:53:18.654Z,100347.55
2017-12-02T18:55:46.169Z,100347.86
2017-12-02T18:58:13.828Z,100352.84
2017-12-02T19:00:41.340Z,100351.22
2017-12-02T19:03:08.851Z,100342.55
2017-12-02T19:05:36.349Z,100342.67
2017-12-02T19:08:03.835Z,100344.66
2017-12-02T19:10:32.562Z,100347.98
2017-12-02T19:13:00.790Z,100351.72
2017-12-02T19:15:28.484Z,100347.43
2017-12-02T19:17:55.982Z,100342.17
2017-12-02T19:20:23.490Z,100348.35
2017-12-02T19:22:51.022Z,100338.86
2017-12-02T19:25:18.672Z,100347.66
2017-12-02T19:27:46.913Z,100339.98
2017-12-02T19:30:14.414Z,100335.34
2017-12-02T19:32:43.621Z,100337.07
2017-12-02T19:35:11.187Z,100345.30
2017-12-02T19:37:40.982Z,100349.16
2017-12-02T19:53:07.222Z,100339.59
2017-12-02T19:55:34.863Z,100340.69
2017-12-02T19:58:02.368Z,100339.68
2017-12-02T20:00:29.929Z,100343.20
2017-12-02T20:02:57.480Z,100333.19
2017-12-02T20:05:25.014Z,100342.77
2017-12-02T20:07:52.745Z,100343.91
2017-12-02T20:10:20.307Z,100349.89
2017-12-02T20:12:47.907Z,100348.87
2017-12-02T20:15:15.392Z,100350.41
2017-12-02T20:17:42.910Z,100350.67
2017-12-02T20:20:10.550Z,100353.83
2017-12-02T20:22:38.396Z,100370.59
2017-12-02T20:25:05.919Z,100375.97
2017-12-02T20:27:33.432Z,100361.91
2017-12-02T20:30:00.908Z,100365.30
2017-12-02T20:32:28.416Z,100360.81
2017-12-02T20:34:55.896Z,100360.49
2017-12-02T20:37:23.437Z,100359.86
2017-12-02T20:39:50.935Z,100360.80
2017-12-02T20:42:18.483Z,100367.84
2017-12-02T20:44:46.037Z,100375.72
2017-12-02T20:47:13.590Z,100383.16
2017-12-02T20:49:41.117Z,100378.12
2017-12-02T20:52:08.573Z,100368.98
2017-12-02T20:54:36.071Z,100363.33
2017-12-02T20:57:03.613Z,100374.73
2017-12-02T20:59:31.100Z,100370.88
2017-12-02T21:01:58.640Z,100381.38
2017-12-02T21:04:26.144Z,100369.93
2017-12-02T21:06:53.714Z,100370.64
2017-12-02T21:09:21.214Z,100368.00
2017-12-02T21:11:48.795Z,100359.94
2017-12-02T21:14:16.252Z,100359.27
2017-12-02T21:16:44.690Z,100358.59
2017-12-02T21:19:12.356Z,100362.33
2017-12-02T21:21:39.855Z,100368.27
2017-12-02T21:24:07.436Z,100365.56
2017-12-02T21:26:34.913Z,100363.59
2017-12-02T21:29:02.472Z,100362.00
2017-12-02T21:31:30.123Z,100367.84
2017-12-02T21:33:57.597Z,100368.14
2017-12-02T21:36:25.109Z,100363.89
2017-12-02T21:38:53.118Z,100364.28
2017-12-02T21:41:20.704Z,100366.91
2017-12-02T21:43:48.358Z,100359.61
2017-12-02T21:46:16.989Z,100361.62
2017-12-02T21:48:44.502Z,100363.97
2017-12-02T21:51:12.109Z,100368.34
2017-12-02T21:53:39.605Z,100366.77
2017-12-02T21:56:07.127Z,100372.19
2017-12-02T21:58:34.649Z,100369.93
2017-12-02T22:01:02.545Z,100369.23
2017-12-02T22:03:30.594Z,100366.20
2017-12-02T22:05:58.128Z,100361.87
2017-12-02T22:08:25.668Z,100358.20
2017-12-02T22:10:53.146Z,100361.36
2017-12-02T22:13:20.692Z,100370.19
2017-12-02T22:15:48.255Z,100355.16
2017-12-02T22:18:15.772Z,100351.80
2017-12-02T22:20:43.248Z,100358.46
2017-12-02T22:23:10.735Z,100361.13
2017-12-02T22:25:38.274Z,100360.66
2017-12-02T22:28:06.087Z,100361.73
2017-12-02T22:30:33.551Z,100364.09
2017-12-02T22:33:01.088Z,100361.04
2017-12-02T22:35:29.032Z,100358.61
2017-12-02T22:37:56.583Z,100353.46
2017-12-02T22:40:24.070Z,100354.41
2017-12-02T22:42:51.571Z,100347.56
2017-12-02T22:45:19.087Z,100339.72
2017-12-02T22:47:46.691Z,100345.30
2017-12-02T22:50:14.164Z,100334.08
2017-12-02T22:52:41.637Z,100339.48
2017-12-02T22:55:09.154Z,100339.46
2017-12-02T22:57:36.629Z,100340.08
2017-12-02T23:00:04.121Z,100340.56
2017-12-02T23:02:32.108Z,100341.30
2017-12-02T23:05:00.577Z,100341.20
2017-12-02T23:07:28.119Z,100335.22
2017-12-02T23:09:55.624Z,100336.94
2017-12-02T23:12:23.928Z,100335.81
2017-12-02T23:14:51.456Z,100332.14
2017-12-02T23:17:18.928Z,100325.36
2017-12-02T23:19:47.445Z,100318.06
2017-12-02T23:22:14.993Z,100313.61
2017-12-02T23:24:42.499Z,100311.63
2017-12-02T23:27:10.346Z,100314.93
2017-12-02T23:29:37.902Z,100322.13
2017-12-02T23:32:05.385Z,100316.84
2017-12-02T23:34:32.876Z,100317.98
2017-12-02T23:37:00.405Z,100318.97
2017-12-02T23:39:27.938Z,100321.23
2017-12-02T23:41:55.412Z,100316.99
2017-12-02T23:44:22.945Z,100314.05
2017-12-02T23:46:50.528Z,100314.15
2017-12-02T23:49:18.049Z,100305.08
2017-12-02T23:51:45.546Z,100296.16
2017-12-02T23:54:13.010Z,100292.48
2017-12-02T23:56:40.575Z,100287.23
2017-12-02T23:59:08.112Z,100297.94
